sensor_id;sensor_type;location;lat;lon;timestamp;P1;durP1;ratioP1;P2;durP2;ratioP2
66946;SDS011;53853;51.982;5.928;2024-03-17T00:00:08;11.23;;;5.65;;
66946;SDS011;53853;51.982;5.928;2024-03-17T00:02:43;9.15;;;5.55;;
66946;SDS011;53853;51.982;5.928;2024-03-17T00:05:10;9.18;;;5.63;;
66946;SDS011;53853;51.982;5.928;2024-03-17T00:07:40;10.90;;;5.90;;
66946;SDS011;53853;51.982;5.928;2024-03-17T00:10:08;7.97;;;5.40;;
66946;SDS011;53853;51.982;5.928;2024-03-17T00:12:38;9.65;;;5.88;;
66946;SDS011;53853;51.982;5.928;2024-03-17T00:15:06;6.85;;;5.15;;
66946;SDS011;53853;51.982;5.928;2024-03-17T00:17:37;9.43;;;5.63;;
66946;SDS011;53853;51.982;5.928;2024-03-17T00:20:08;8.93;;;5.68;;
66946;SDS011;53853;51.982;5.928;2024-03-17T00:22:45;10.63;;;6.75;;
66946;SDS011;53853;51.982;5.928;2024-03-17T00:25:12;9.60;;;6.25;;
66946;SDS011;53853;51.982;5.928;2024-03-17T00:27:43;8.88;;;6.25;;
66946;SDS011;53853;51.982;5.928;2024-03-17T00:30:11;9.48;;;5.47;;
66946;SDS011;53853;51.982;5.928;2024-03-17T00:32:42;9.85;;;6.10;;
66946;SDS011;53853;51.982;5.928;2024-03-17T00:35:11;8.70;;;6.10;;
66946;SDS011;53853;51.982;5.928;2024-03-17T00:37:46;8.30;;;6.35;;
66946;SDS011;53853;51.982;5.928;2024-03-17T00:40:13;9.70;;;6.03;;
66946;SDS011;53853;51.982;5.928;2024-03-17T00:42:44;11.15;;;7.13;;
66946;SDS011;53853;51.982;5.928;2024-03-17T00:45:11;10.52;;;7.18;;
66946;SDS011;53853;51.982;5.928;2024-03-17T00:47:41;9.35;;;6.35;;
66946;SDS011;53853;51.982;5.928;2024-03-17T00:50:12;9.23;;;5.70;;
66946;SDS011;53853;51.982;5.928;2024-03-17T00:52:42;7.18;;;5.40;;
66946;SDS011;53853;51.982;5.928;2024-03-17T00:55:10;8.48;;;5.90;;
66946;SDS011;53853;51.982;5.928;2024-03-17T00:57:40;11.52;;;6.18;;
66946;SDS011;53853;51.982;5.928;2024-03-17T01:00:08;7.90;;;5.47;;
66946;SDS011;53853;51.982;5.928;2024-03-17T01:02:38;8.57;;;5.30;;
66946;SDS011;53853;51.982;5.928;2024-03-17T01:05:06;8.52;;;5.43;;
66946;SDS011;53853;51.982;5.928;2024-03-17T01:07:39;12.38;;;6.85;;
66946;SDS011;53853;51.982;5.928;2024-03-17T01:10:09;7.13;;;5.15;;
66946;SDS011;53853;51.982;5.928;2024-03-17T01:12:36;8.10;;;5.80;;
66946;SDS011;53853;51.982;5.928;2024-03-17T01:15:07;9.10;;;5.57;;
66946;SDS011;53853;51.982;5.928;2024-03-17T01:17:35;8.85;;;5.18;;
66946;SDS011;53853;51.982;5.928;2024-03-17T01:20:05;8.38;;;5.97;;
66946;SDS011;53853;51.982;5.928;2024-03-17T01:22:34;8.45;;;6.28;;
66946;SDS011;53853;51.982;5.928;2024-03-17T01:25:06;8.57;;;6.25;;
66946;SDS011;53853;51.982;5.928;2024-03-17T01:27:34;8.05;;;4.80;;
66946;SDS011;53853;51.982;5.928;2024-03-17T01:30:04;10.52;;;5.68;;
66946;SDS011;53853;51.982;5.928;2024-03-17T01:32:33;8.70;;;5.78;;
66946;SDS011;53853;51.982;5.928;2024-03-17T01:35:03;9.90;;;6.28;;
66946;SDS011;53853;51.982;5.928;2024-03-17T01:37:34;12.63;;;6.55;;
66946;SDS011;53853;51.982;5.928;2024-03-17T01:40:02;9.50;;;5.60;;
66946;SDS011;53853;51.982;5.928;2024-03-17T01:42:36;6.32;;;5.22;;
66946;SDS011;53853;51.982;5.928;2024-03-17T01:45:13;10.02;;;5.82;;
66946;SDS011;53853;51.982;5.928;2024-03-17T01:47:55;7.30;;;5.22;;
66946;SDS011;53853;51.982;5.928;2024-03-17T01:50:25;8.38;;;5.75;;
66946;SDS011;53853;51.982;5.928;2024-03-17T01:52:58;7.97;;;4.72;;
66946;SDS011;53853;51.982;5.928;2024-03-17T01:55:30;7.00;;;5.60;;
66946;SDS011;53853;51.982;5.928;2024-03-17T01:58:04;5.78;;;4.68;;
66946;SDS011;53853;51.982;5.928;2024-03-17T02:00:33;7.30;;;5.15;;
66946;SDS011;53853;51.982;5.928;2024-03-17T02:03:04;7.68;;;5.50;;
66946;SDS011;53853;51.982;5.928;2024-03-17T02:05:32;8.50;;;5.55;;
66946;SDS011;53853;51.982;5.928;2024-03-17T02:08:03;11.27;;;7.38;;
66946;SDS011;53853;51.982;5.928;2024-03-17T02:10:31;11.07;;;6.90;;
66946;SDS011;53853;51.982;5.928;2024-03-17T02:13:03;12.68;;;8.25;;
66946;SDS011;53853;51.982;5.928;2024-03-17T02:15:31;16.77;;;9.32;;
66946;SDS011;53853;51.982;5.928;2024-03-17T02:18:01;12.88;;;9.65;;
66946;SDS011;53853;51.982;5.928;2024-03-17T02:20:28;12.45;;;8.63;;
66946;SDS011;53853;51.982;5.928;2024-03-17T02:23:13;13.45;;;8.25;;
66946;SDS011;53853;51.982;5.928;2024-03-17T02:25:44;13.20;;;8.05;;
66946;SDS011;53853;51.982;5.928;2024-03-17T02:28:12;11.27;;;6.93;;
66946;SDS011;53853;51.982;5.928;2024-03-17T02:30:42;10.10;;;6.30;;
66946;SDS011;53853;51.982;5.928;2024-03-17T02:33:09;8.18;;;5.85;;
66946;SDS011;53853;51.982;5.928;2024-03-17T02:35:39;11.18;;;6.72;;
66946;SDS011;53853;51.982;5.928;2024-03-17T02:38:07;8.38;;;6.25;;
66946;SDS011;53853;51.982;5.928;2024-03-17T02:41:02;8.20;;;5.60;;
66946;SDS011;53853;51.982;5.928;2024-03-17T02:43:29;11.02;;;6.47;;
66946;SDS011;53853;51.982;5.928;2024-03-17T02:45:59;7.97;;;5.93;;
66946;SDS011;53853;51.982;5.928;2024-03-17T02:48:30;8.68;;;5.53;;
66946;SDS011;53853;51.982;5.928;2024-03-17T02:51:00;9.27;;;6.07;;
66946;SDS011;53853;51.982;5.928;2024-03-17T02:53:30;11.50;;;5.55;;
66946;SDS011;53853;51.982;5.928;2024-03-17T02:56:03;8.13;;;5.80;;
66946;SDS011;53853;51.982;5.928;2024-03-17T02:58:33;10.65;;;6.18;;
66946;SDS011;53853;51.982;5.928;2024-03-17T03:01:03;9.55;;;5.60;;
66946;SDS011;53853;51.982;5.928;2024-03-17T03:03:35;7.35;;;5.70;;
66946;SDS011;53853;51.982;5.928;2024-03-17T03:06:06;7.85;;;5.40;;
66946;SDS011;53853;51.982;5.928;2024-03-17T03:08:37;8.25;;;5.20;;
66946;SDS011;53853;51.982;5.928;2024-03-17T03:11:10;7.10;;;4.95;;
66946;SDS011;53853;51.982;5.928;2024-03-17T03:13:40;9.63;;;5.68;;
66946;SDS011;53853;51.982;5.928;2024-03-17T03:16:12;8.23;;;5.28;;
66946;SDS011;53853;51.982;5.928;2024-03-17T03:18:44;8.23;;;5.75;;
66946;SDS011;53853;51.982;5.928;2024-03-17T03:21:14;8.77;;;6.30;;
66946;SDS011;53853;51.982;5.928;2024-03-17T03:23:44;9.68;;;5.57;;
66946;SDS011;53853;51.982;5.928;2024-03-17T03:26:17;8.68;;;6.45;;
66946;SDS011;53853;51.982;5.928;2024-03-17T03:28:49;6.30;;;5.50;;
66946;SDS011;53853;51.982;5.928;2024-03-17T03:31:21;9.52;;;6.00;;
66946;SDS011;53853;51.982;5.928;2024-03-17T03:33:50;9.45;;;5.85;;
66946;SDS011;53853;51.982;5.928;2024-03-17T03:36:22;10.82;;;6.25;;
66946;SDS011;53853;51.982;5.928;2024-03-17T03:38:52;7.93;;;5.70;;
66946;SDS011;53853;51.982;5.928;2024-03-17T03:41:25;9.32;;;5.45;;
66946;SDS011;53853;51.982;5.928;2024-03-17T03:43:54;7.15;;;5.38;;
66946;SDS011;53853;51.982;5.928;2024-03-17T03:46:24;10.48;;;6.50;;
66946;SDS011;53853;51.982;5.928;2024-03-17T03:48:54;10.23;;;6.97;;
66946;SDS011;53853;51.982;5.928;2024-03-17T03:51:24;7.90;;;5.90;;
66946;SDS011;53853;51.982;5.928;2024-03-17T03:53:54;9.30;;;6.47;;
66946;SDS011;53853;51.982;5.928;2024-03-17T03:56:26;10.10;;;6.40;;
66946;SDS011;53853;51.982;5.928;2024-03-17T03:58:56;10.50;;;6.70;;
66946;SDS011;53853;51.982;5.928;2024-03-17T04:01:26;10.75;;;6.43;;
66946;SDS011;53853;51.982;5.928;2024-03-17T04:03:56;9.38;;;6.15;;
66946;SDS011;53853;51.982;5.928;2024-03-17T04:06:29;10.43;;;6.25;;
66946;SDS011;53853;51.982;5.928;2024-03-17T04:09:06;10.07;;;6.18;;
66946;SDS011;53853;51.982;5.928;2024-03-17T04:11:39;7.95;;;6.13;;
66946;SDS011;53853;51.982;5.928;2024-03-17T04:14:08;11.90;;;7.30;;
66946;SDS011;53853;51.982;5.928;2024-03-17T04:16:38;10.88;;;6.80;;
66946;SDS011;53853;51.982;5.928;2024-03-17T04:19:08;6.68;;;5.32;;
66946;SDS011;53853;51.982;5.928;2024-03-17T04:21:40;8.82;;;5.43;;
66946;SDS011;53853;51.982;5.928;2024-03-17T04:24:09;7.72;;;5.70;;
66946;SDS011;53853;51.982;5.928;2024-03-17T04:26:42;6.68;;;5.20;;
66946;SDS011;53853;51.982;5.928;2024-03-17T04:29:12;8.18;;;6.68;;
66946;SDS011;53853;51.982;5.928;2024-03-17T04:31:41;7.25;;;6.53;;
66946;SDS011;53853;51.982;5.928;2024-03-17T04:34:14;8.13;;;6.53;;
66946;SDS011;53853;51.982;5.928;2024-03-17T04:36:44;10.35;;;7.40;;
66946;SDS011;53853;51.982;5.928;2024-03-17T04:39:14;8.63;;;6.47;;
66946;SDS011;53853;51.982;5.928;2024-03-17T04:41:46;10.25;;;7.65;;
66946;SDS011;53853;51.982;5.928;2024-03-17T04:44:16;7.05;;;6.35;;
66946;SDS011;53853;51.982;5.928;2024-03-17T04:46:46;8.23;;;7.18;;
66946;SDS011;53853;51.982;5.928;2024-03-17T04:49:16;8.07;;;6.40;;
66946;SDS011;53853;51.982;5.928;2024-03-17T04:51:46;8.20;;;6.90;;
66946;SDS011;53853;51.982;5.928;2024-03-17T04:54:15;11.02;;;6.97;;
66946;SDS011;53853;51.982;5.928;2024-03-17T04:56:48;10.02;;;7.75;;
66946;SDS011;53853;51.982;5.928;2024-03-17T04:59:18;8.65;;;7.00;;
66946;SDS011;53853;51.982;5.928;2024-03-17T05:01:47;7.93;;;6.65;;
66946;SDS011;53853;51.982;5.928;2024-03-17T05:04:17;8.25;;;6.70;;
66946;SDS011;53853;51.982;5.928;2024-03-17T05:06:48;9.80;;;7.30;;
66946;SDS011;53853;51.982;5.928;2024-03-17T05:09:18;10.05;;;7.78;;
66946;SDS011;53853;51.982;5.928;2024-03-17T05:11:52;8.95;;;7.68;;
66946;SDS011;53853;51.982;5.928;2024-03-17T05:14:22;8.07;;;7.22;;
66946;SDS011;53853;51.982;5.928;2024-03-17T05:16:51;8.25;;;6.45;;
66946;SDS011;53853;51.982;5.928;2024-03-17T05:19:21;9.93;;;7.38;;
66946;SDS011;53853;51.982;5.928;2024-03-17T05:21:51;10.60;;;7.90;;
66946;SDS011;53853;51.982;5.928;2024-03-17T05:24:21;7.70;;;6.38;;
66946;SDS011;53853;51.982;5.928;2024-03-17T05:26:53;9.10;;;6.90;;
66946;SDS011;53853;51.982;5.928;2024-03-17T05:29:23;10.32;;;7.22;;
66946;SDS011;53853;51.982;5.928;2024-03-17T05:31:53;8.70;;;6.93;;
66946;SDS011;53853;51.982;5.928;2024-03-17T05:34:22;10.40;;;6.57;;
66946;SDS011;53853;51.982;5.928;2024-03-17T05:36:52;10.00;;;7.65;;
66946;SDS011;53853;51.982;5.928;2024-03-17T05:39:22;9.85;;;7.85;;
66946;SDS011;53853;51.982;5.928;2024-03-17T05:41:54;9.43;;;8.00;;
66946;SDS011;53853;51.982;5.928;2024-03-17T05:44:24;9.32;;;7.68;;
66946;SDS011;53853;51.982;5.928;2024-03-17T05:46:55;12.30;;;9.10;;
66946;SDS011;53853;51.982;5.928;2024-03-17T05:49:25;10.23;;;8.73;;
66946;SDS011;53853;51.982;5.928;2024-03-17T05:51:55;14.20;;;11.07;;
66946;SDS011;53853;51.982;5.928;2024-03-17T05:54:24;10.18;;;8.75;;
66946;SDS011;53853;51.982;5.928;2024-03-17T05:56:57;10.07;;;8.38;;
66946;SDS011;53853;51.982;5.928;2024-03-17T05:59:30;10.32;;;7.78;;
66946;SDS011;53853;51.982;5.928;2024-03-17T06:01:59;10.32;;;8.50;;
66946;SDS011;53853;51.982;5.928;2024-03-17T06:04:29;10.32;;;9.10;;
66946;SDS011;53853;51.982;5.928;2024-03-17T06:06:59;11.85;;;8.60;;
66946;SDS011;53853;51.982;5.928;2024-03-17T06:09:29;11.15;;;9.32;;
66946;SDS011;53853;51.982;5.928;2024-03-17T06:12:02;9.00;;;7.95;;
66946;SDS011;53853;51.982;5.928;2024-03-17T06:14:32;11.55;;;8.57;;
66946;SDS011;53853;51.982;5.928;2024-03-17T06:17:02;9.85;;;8.80;;
66946;SDS011;53853;51.982;5.928;2024-03-17T06:19:33;9.98;;;8.23;;
66946;SDS011;53853;51.982;5.928;2024-03-17T06:22:03;13.93;;;9.38;;
66946;SDS011;53853;51.982;5.928;2024-03-17T06:24:34;11.10;;;8.77;;
66946;SDS011;53853;51.982;5.928;2024-03-17T06:27:07;10.98;;;9.43;;
66946;SDS011;53853;51.982;5.928;2024-03-17T06:29:37;10.90;;;8.65;;
66946;SDS011;53853;51.982;5.928;2024-03-17T06:32:08;12.27;;;9.98;;
66946;SDS011;53853;51.982;5.928;2024-03-17T06:34:38;10.10;;;8.10;;
66946;SDS011;53853;51.982;5.928;2024-03-17T06:37:08;11.05;;;9.18;;
66946;SDS011;53853;51.982;5.928;2024-03-17T06:39:38;13.23;;;10.30;;
66946;SDS011;53853;51.982;5.928;2024-03-17T06:42:10;10.55;;;9.07;;
66946;SDS011;53853;51.982;5.928;2024-03-17T06:44:40;11.27;;;9.13;;
66946;SDS011;53853;51.982;5.928;2024-03-17T06:47:10;11.85;;;9.50;;
66946;SDS011;53853;51.982;5.928;2024-03-17T06:49:40;10.48;;;8.55;;
66946;SDS011;53853;51.982;5.928;2024-03-17T06:52:10;14.45;;;8.93;;
66946;SDS011;53853;51.982;5.928;2024-03-17T06:54:39;10.80;;;8.38;;
66946;SDS011;53853;51.982;5.928;2024-03-17T06:57:12;12.07;;;8.98;;
66946;SDS011;53853;51.982;5.928;2024-03-17T06:59:42;12.77;;;10.32;;
66946;SDS011;53853;51.982;5.928;2024-03-17T07:02:11;12.27;;;9.60;;
66946;SDS011;53853;51.982;5.928;2024-03-17T07:04:43;12.05;;;10.85;;
66946;SDS011;53853;51.982;5.928;2024-03-17T07:07:13;10.98;;;9.55;;
66946;SDS011;53853;51.982;5.928;2024-03-17T07:09:43;10.98;;;9.80;;
66946;SDS011;53853;51.982;5.928;2024-03-17T07:12:18;10.95;;;9.15;;
66946;SDS011;53853;51.982;5.928;2024-03-17T07:14:49;10.05;;;8.98;;
66946;SDS011;53853;51.982;5.928;2024-03-17T07:17:19;10.25;;;9.15;;
66946;SDS011;53853;51.982;5.928;2024-03-17T07:19:49;10.00;;;8.25;;
66946;SDS011;53853;51.982;5.928;2024-03-17T07:22:19;9.88;;;8.45;;
66946;SDS011;53853;51.982;5.928;2024-03-17T07:24:52;10.07;;;8.65;;
66946;SDS011;53853;51.982;5.928;2024-03-17T07:29:58;11.75;;;9.77;;
66946;SDS011;53853;51.982;5.928;2024-03-17T07:32:28;10.93;;;9.60;;
66946;SDS011;53853;51.982;5.928;2024-03-17T07:34:57;8.98;;;8.07;;
66946;SDS011;53853;51.982;5.928;2024-03-17T07:37:27;10.65;;;9.07;;
66946;SDS011;53853;51.982;5.928;2024-03-17T07:39:57;10.85;;;8.98;;
66946;SDS011;53853;51.982;5.928;2024-03-17T07:42:31;10.55;;;9.45;;
66946;SDS011;53853;51.982;5.928;2024-03-17T07:45:02;9.10;;;8.05;;
66946;SDS011;53853;51.982;5.928;2024-03-17T07:47:33;8.70;;;7.85;;
66946;SDS011;53853;51.982;5.928;2024-03-17T07:50:04;10.15;;;8.70;;
66946;SDS011;53853;51.982;5.928;2024-03-17T07:52:35;9.77;;;8.20;;
66946;SDS011;53853;51.982;5.928;2024-03-17T07:55:05;10.70;;;9.43;;
66946;SDS011;53853;51.982;5.928;2024-03-17T07:57:37;10.35;;;8.30;;
66946;SDS011;53853;51.982;5.928;2024-03-17T08:00:08;8.18;;;7.38;;
66946;SDS011;53853;51.982;5.928;2024-03-17T08:02:41;9.07;;;8.18;;
66946;SDS011;53853;51.982;5.928;2024-03-17T08:05:13;7.38;;;6.57;;
66946;SDS011;53853;51.982;5.928;2024-03-17T08:07:43;7.60;;;5.95;;
66946;SDS011;53853;51.982;5.928;2024-03-17T08:10:13;10.90;;;7.95;;
66946;SDS011;53853;51.982;5.928;2024-03-17T08:12:46;10.85;;;7.45;;
66946;SDS011;53853;51.982;5.928;2024-03-17T08:15:16;9.52;;;7.25;;
66946;SDS011;53853;51.982;5.928;2024-03-17T08:17:45;8.75;;;6.47;;
66946;SDS011;53853;51.982;5.928;2024-03-17T08:20:15;8.25;;;6.68;;
66946;SDS011;53853;51.982;5.928;2024-03-17T08:22:45;12.93;;;8.57;;
66946;SDS011;53853;51.982;5.928;2024-03-17T08:25:15;9.00;;;7.43;;
66946;SDS011;53853;51.982;5.928;2024-03-17T08:27:48;7.60;;;5.75;;
66946;SDS011;53853;51.982;5.928;2024-03-17T08:30:18;8.43;;;6.53;;
66946;SDS011;53853;51.982;5.928;2024-03-17T08:32:48;6.50;;;5.50;;
66946;SDS011;53853;51.982;5.928;2024-03-17T08:35:17;5.78;;;5.05;;
66946;SDS011;53853;51.982;5.928;2024-03-17T08:37:47;7.88;;;7.07;;
66946;SDS011;53853;51.982;5.928;2024-03-17T08:40:17;6.10;;;5.47;;
66946;SDS011;53853;51.982;5.928;2024-03-17T08:42:51;7.15;;;5.93;;
66946;SDS011;53853;51.982;5.928;2024-03-17T08:45:20;7.18;;;5.70;;
66946;SDS011;53853;51.982;5.928;2024-03-17T08:47:50;8.05;;;6.70;;
66946;SDS011;53853;51.982;5.928;2024-03-17T08:50:21;7.47;;;5.57;;
66946;SDS011;53853;51.982;5.928;2024-03-17T08:52:50;5.35;;;4.40;;
66946;SDS011;53853;51.982;5.928;2024-03-17T08:55:21;7.10;;;5.07;;
66946;SDS011;53853;51.982;5.928;2024-03-17T08:57:53;8.32;;;5.70;;
66946;SDS011;53853;51.982;5.928;2024-03-17T09:00:23;6.65;;;5.75;;
66946;SDS011;53853;51.982;5.928;2024-03-17T09:02:53;8.85;;;5.95;;
66946;SDS011;53853;51.982;5.928;2024-03-17T09:05:22;9.23;;;5.45;;
66946;SDS011;53853;51.982;5.928;2024-03-17T09:07:52;6.97;;;5.70;;
66946;SDS011;53853;51.982;5.928;2024-03-17T09:10:22;8.77;;;6.20;;
66946;SDS011;53853;51.982;5.928;2024-03-17T09:12:54;5.90;;;4.95;;
66946;SDS011;53853;51.982;5.928;2024-03-17T09:15:24;6.57;;;5.28;;
66946;SDS011;53853;51.982;5.928;2024-03-17T09:17:54;6.53;;;5.05;;
66946;SDS011;53853;51.982;5.928;2024-03-17T09:20:24;6.43;;;5.75;;
66946;SDS011;53853;51.982;5.928;2024-03-17T09:22:54;8.43;;;6.32;;
66946;SDS011;53853;51.982;5.928;2024-03-17T09:25:24;8.23;;;6.15;;
66946;SDS011;53853;51.982;5.928;2024-03-17T09:27:56;5.28;;;4.47;;
66946;SDS011;53853;51.982;5.928;2024-03-17T09:30:26;6.93;;;5.55;;
66946;SDS011;53853;51.982;5.928;2024-03-17T09:32:56;5.65;;;4.97;;
66946;SDS011;53853;51.982;5.928;2024-03-17T09:35:26;7.00;;;5.25;;
66946;SDS011;53853;51.982;5.928;2024-03-17T09:37:55;7.20;;;5.78;;
66946;SDS011;53853;51.982;5.928;2024-03-17T09:40:25;5.97;;;5.13;;
66946;SDS011;53853;51.982;5.928;2024-03-17T09:42:58;10.00;;;7.05;;
66946;SDS011;53853;51.982;5.928;2024-03-17T09:45:27;5.32;;;4.70;;
66946;SDS011;53853;51.982;5.928;2024-03-17T09:47:59;6.07;;;5.13;;
66946;SDS011;53853;51.982;5.928;2024-03-17T09:50:29;6.13;;;5.22;;
66946;SDS011;53853;51.982;5.928;2024-03-17T09:53:01;7.35;;;5.93;;
66946;SDS011;53853;51.982;5.928;2024-03-17T09:55:33;6.68;;;5.55;;
66946;SDS011;53853;51.982;5.928;2024-03-17T09:58:06;5.35;;;4.70;;
66946;SDS011;53853;51.982;5.928;2024-03-17T10:00:43;6.90;;;6.03;;
66946;SDS011;53853;51.982;5.928;2024-03-17T10:03:38;8.15;;;6.03;;
66946;SDS011;53853;51.982;5.928;2024-03-17T10:06:10;6.82;;;5.88;;
66946;SDS011;53853;51.982;5.928;2024-03-17T10:08:42;7.57;;;5.60;;
66946;SDS011;53853;51.982;5.928;2024-03-17T10:11:13;10.00;;;5.63;;
66946;SDS011;53853;51.982;5.928;2024-03-17T10:13:47;6.25;;;5.60;;
66946;SDS011;53853;51.982;5.928;2024-03-17T10:16:29;5.85;;;5.18;;
66946;SDS011;53853;51.982;5.928;2024-03-17T10:19:06;6.15;;;5.30;;
66946;SDS011;53853;51.982;5.928;2024-03-17T10:21:37;5.25;;;4.60;;
66946;SDS011;53853;51.982;5.928;2024-03-17T10:24:10;6.72;;;5.80;;
66946;SDS011;53853;51.982;5.928;2024-03-17T10:26:41;6.40;;;5.80;;
66946;SDS011;53853;51.982;5.928;2024-03-17T10:29:22;7.40;;;6.30;;
66946;SDS011;53853;51.982;5.928;2024-03-17T10:31:53;6.97;;;6.00;;
66946;SDS011;53853;51.982;5.928;2024-03-17T10:34:25;7.70;;;6.28;;
66946;SDS011;53853;51.982;5.928;2024-03-17T10:37:05;8.23;;;5.82;;
66946;SDS011;53853;51.982;5.928;2024-03-17T10:39:40;6.47;;;5.82;;
66946;SDS011;53853;51.982;5.928;2024-03-17T10:42:11;7.40;;;5.65;;
66946;SDS011;53853;51.982;5.928;2024-03-17T10:44:46;6.47;;;5.47;;
66946;SDS011;53853;51.982;5.928;2024-03-17T10:47:17;6.15;;;5.55;;
66946;SDS011;53853;51.982;5.928;2024-03-17T10:49:51;7.15;;;6.15;;
66946;SDS011;53853;51.982;5.928;2024-03-17T10:52:22;8.38;;;6.03;;
66946;SDS011;53853;51.982;5.928;2024-03-17T10:54:54;8.55;;;5.80;;
66946;SDS011;53853;51.982;5.928;2024-03-17T10:57:27;6.78;;;5.80;;
66946;SDS011;53853;51.982;5.928;2024-03-17T11:00:03;6.88;;;5.85;;
66946;SDS011;53853;51.982;5.928;2024-03-17T11:02:35;7.65;;;6.85;;
66946;SDS011;53853;51.982;5.928;2024-03-17T11:05:07;7.72;;;6.28;;
66946;SDS011;53853;51.982;5.928;2024-03-17T11:07:40;8.13;;;6.28;;
66946;SDS011;53853;51.982;5.928;2024-03-17T11:10:14;5.82;;;5.15;;
66946;SDS011;53853;51.982;5.928;2024-03-17T11:12:48;6.72;;;5.88;;
66946;SDS011;53853;51.982;5.928;2024-03-17T11:20:57;8.30;;;6.15;;
66946;SDS011;53853;51.982;5.928;2024-03-17T11:23:33;6.72;;;6.03;;
66946;SDS011;53853;51.982;5.928;2024-03-17T11:26:04;6.97;;;6.28;;
66946;SDS011;53853;51.982;5.928;2024-03-17T11:28:48;7.72;;;6.30;;
66946;SDS011;53853;51.982;5.928;2024-03-17T11:31:37;7.53;;;5.47;;
66946;SDS011;53853;51.982;5.928;2024-03-17T11:37:05;10.18;;;6.53;;
66946;SDS011;53853;51.982;5.928;2024-03-17T11:39:47;7.18;;;6.20;;
66946;SDS011;53853;51.982;5.928;2024-03-17T11:42:21;6.93;;;5.40;;
66946;SDS011;53853;51.982;5.928;2024-03-17T11:44:54;5.50;;;4.78;;
66946;SDS011;53853;51.982;5.928;2024-03-17T11:47:41;6.47;;;5.30;;
66946;SDS011;53853;51.982;5.928;2024-03-17T11:50:12;5.68;;;4.93;;
66946;SDS011;53853;51.982;5.928;2024-03-17T11:52:41;6.68;;;5.93;;
66946;SDS011;53853;51.982;5.928;2024-03-17T11:55:20;8.35;;;5.75;;
66946;SDS011;53853;51.982;5.928;2024-03-17T11:57:48;6.55;;;5.63;;
66946;SDS011;53853;51.982;5.928;2024-03-17T12:00:24;6.47;;;5.57;;
66946;SDS011;53853;51.982;5.928;2024-03-17T12:02:54;8.57;;;6.43;;
66946;SDS011;53853;51.982;5.928;2024-03-17T12:05:25;5.97;;;5.20;;
66946;SDS011;53853;51.982;5.928;2024-03-17T12:07:54;8.00;;;6.18;;
66946;SDS011;53853;51.982;5.928;2024-03-17T12:10:22;8.52;;;6.07;;
66946;SDS011;53853;51.982;5.928;2024-03-17T12:12:52;7.90;;;6.15;;
66946;SDS011;53853;51.982;5.928;2024-03-17T12:15:19;5.55;;;4.95;;
66946;SDS011;53853;51.982;5.928;2024-03-17T12:17:56;6.63;;;5.15;;
66946;SDS011;53853;51.982;5.928;2024-03-17T12:20:25;6.13;;;4.82;;
66946;SDS011;53853;51.982;5.928;2024-03-17T12:22:55;7.40;;;5.68;;
66946;SDS011;53853;51.982;5.928;2024-03-17T12:25:23;6.18;;;5.38;;
66946;SDS011;53853;51.982;5.928;2024-03-17T12:27:55;8.25;;;6.03;;
66946;SDS011;53853;51.982;5.928;2024-03-17T12:30:22;7.05;;;5.88;;
66946;SDS011;53853;51.982;5.928;2024-03-17T12:32:52;6.72;;;5.68;;
66946;SDS011;53853;51.982;5.928;2024-03-17T12:35:22;8.18;;;6.20;;
66946;SDS011;53853;51.982;5.928;2024-03-17T12:37:52;10.15;;;7.88;;
66946;SDS011;53853;51.982;5.928;2024-03-17T12:40:20;7.55;;;5.65;;
66946;SDS011;53853;51.982;5.928;2024-03-17T12:42:51;8.02;;;6.15;;
66946;SDS011;53853;51.982;5.928;2024-03-17T12:45:21;8.43;;;6.28;;
66946;SDS011;53853;51.982;5.928;2024-03-17T12:47:52;10.00;;;7.35;;
66946;SDS011;53853;51.982;5.928;2024-03-17T12:50:22;7.10;;;6.05;;
66946;SDS011;53853;51.982;5.928;2024-03-17T12:52:53;8.00;;;5.85;;
66946;SDS011;53853;51.982;5.928;2024-03-17T12:55:21;8.38;;;6.38;;
66946;SDS011;53853;51.982;5.928;2024-03-17T12:58:07;6.82;;;5.75;;
66946;SDS011;53853;51.982;5.928;2024-03-17T13:00:57;7.43;;;5.38;;
66946;SDS011;53853;51.982;5.928;2024-03-17T13:03:31;8.75;;;6.80;;
66946;SDS011;53853;51.982;5.928;2024-03-17T13:06:02;8.02;;;6.32;;
66946;SDS011;53853;51.982;5.928;2024-03-17T13:08:33;8.60;;;6.80;;
66946;SDS011;53853;51.982;5.928;2024-03-17T13:11:03;9.07;;;5.85;;
66946;SDS011;53853;51.982;5.928;2024-03-17T13:13:37;6.22;;;5.10;;
66946;SDS011;53853;51.982;5.928;2024-03-17T13:16:07;8.43;;;6.03;;
66946;SDS011;53853;51.982;5.928;2024-03-17T13:18:41;5.88;;;4.95;;
66946;SDS011;53853;51.982;5.928;2024-03-17T13:21:11;11.40;;;5.82;;
66946;SDS011;53853;51.982;5.928;2024-03-17T13:23:41;8.48;;;6.65;;
66946;SDS011;53853;51.982;5.928;2024-03-17T13:26:11;8.48;;;5.72;;
66946;SDS011;53853;51.982;5.928;2024-03-17T13:28:41;11.68;;;7.80;;
66946;SDS011;53853;51.982;5.928;2024-03-17T13:31:12;9.88;;;6.57;;
66946;SDS011;53853;51.982;5.928;2024-03-17T13:33:44;9.85;;;6.53;;
66946;SDS011;53853;51.982;5.928;2024-03-17T13:36:14;7.22;;;5.30;;
66946;SDS011;53853;51.982;5.928;2024-03-17T13:38:44;9.55;;;7.50;;
66946;SDS011;53853;51.982;5.928;2024-03-17T13:41:14;11.52;;;7.65;;
66946;SDS011;53853;51.982;5.928;2024-03-17T13:43:44;10.60;;;6.03;;
66946;SDS011;53853;51.982;5.928;2024-03-17T13:46:15;6.93;;;5.28;;
66946;SDS011;53853;51.982;5.928;2024-03-17T13:48:48;9.63;;;6.43;;
66946;SDS011;53853;51.982;5.928;2024-03-17T13:51:23;7.85;;;5.97;;
66946;SDS011;53853;51.982;5.928;2024-03-17T13:53:53;7.25;;;5.70;;
66946;SDS011;53853;51.982;5.928;2024-03-17T13:56:23;7.95;;;5.72;;
66946;SDS011;53853;51.982;5.928;2024-03-17T13:58:53;10.73;;;7.88;;
66946;SDS011;53853;51.982;5.928;2024-03-17T14:01:22;8.10;;;5.60;;
66946;SDS011;53853;51.982;5.928;2024-03-17T14:03:55;11.23;;;6.00;;
66946;SDS011;53853;51.982;5.928;2024-03-17T14:06:25;9.93;;;6.93;;
66946;SDS011;53853;51.982;5.928;2024-03-17T14:08:54;9.10;;;6.85;;
66946;SDS011;53853;51.982;5.928;2024-03-17T14:11:25;10.30;;;6.20;;
66946;SDS011;53853;51.982;5.928;2024-03-17T14:13:55;8.48;;;6.43;;
66946;SDS011;53853;51.982;5.928;2024-03-17T14:16:25;9.27;;;6.25;;
66946;SDS011;53853;51.982;5.928;2024-03-17T14:18:58;10.38;;;6.97;;
66946;SDS011;53853;51.982;5.928;2024-03-17T14:21:28;8.23;;;6.43;;
66946;SDS011;53853;51.982;5.928;2024-03-17T14:23:58;7.75;;;5.85;;
66946;SDS011;53853;51.982;5.928;2024-03-17T14:26:32;9.85;;;5.90;;
66946;SDS011;53853;51.982;5.928;2024-03-17T14:29:02;7.40;;;5.45;;
66946;SDS011;53853;51.982;5.928;2024-03-17T14:31:32;7.75;;;5.55;;
66946;SDS011;53853;51.982;5.928;2024-03-17T14:34:06;8.65;;;6.28;;
66946;SDS011;53853;51.982;5.928;2024-03-17T14:36:35;8.65;;;5.70;;
66946;SDS011;53853;51.982;5.928;2024-03-17T14:39:06;8.27;;;6.10;;
66946;SDS011;53853;51.982;5.928;2024-03-17T14:41:36;7.18;;;5.82;;
66946;SDS011;53853;51.982;5.928;2024-03-17T14:44:06;8.77;;;7.15;;
66946;SDS011;53853;51.982;5.928;2024-03-17T14:46:36;9.32;;;6.47;;
66946;SDS011;53853;51.982;5.928;2024-03-17T14:49:08;9.43;;;6.28;;
66946;SDS011;53853;51.982;5.928;2024-03-17T14:51:38;12.32;;;7.32;;
66946;SDS011;53853;51.982;5.928;2024-03-17T14:54:08;9.05;;;5.72;;
66946;SDS011;53853;51.982;5.928;2024-03-17T14:56:38;9.25;;;6.68;;
66946;SDS011;53853;51.982;5.928;2024-03-17T14:59:08;8.45;;;6.90;;
66946;SDS011;53853;51.982;5.928;2024-03-17T15:01:38;7.53;;;5.18;;
66946;SDS011;53853;51.982;5.928;2024-03-17T15:04:11;7.00;;;5.57;;
66946;SDS011;53853;51.982;5.928;2024-03-17T15:06:40;9.48;;;6.47;;
66946;SDS011;53853;51.982;5.928;2024-03-17T15:09:11;8.95;;;6.22;;
66946;SDS011;53853;51.982;5.928;2024-03-17T15:11:44;5.90;;;5.18;;
66946;SDS011;53853;51.982;5.928;2024-03-17T15:14:14;8.45;;;6.43;;
66946;SDS011;53853;51.982;5.928;2024-03-17T15:16:45;7.50;;;6.25;;